EKOD/ODE METAR and TAF weather

Enter ICAO airport designator
Station Type Date Time Source
EKOD METAR 2022/01/26 06:50 UTC NOAA

EKOD 260650Z 26020G30KT 7000 DZ SCT013 OVC018 04/03 Q1023


Station Type Date Time Source
EKOD Decoded METAR 2022/01/26 06:50 UTC NOAA

Odense / Beldringe, Denmark (EKOD) 55-29N 010-20E 17M
Jan 26, 2022 - 01:50 AM EST / 2022.01.26 0650 UTC
Wind: from the W (260 degrees) at 23 MPH (20 KT) gusting to 35 MPH (30 KT):0
Visibility: 4 mile(s):0
Sky conditions: overcast
Weather: drizzle
Temperature: 39 F (4 C)
Dew Point: 37 F (3 C)
Relative Humidity: 93%
Pressure (altimeter): 30.21 in. Hg (1023 hPa)
ob: EKOD 260650Z 26020G30KT 7000 DZ SCT013 OVC018 04/03 Q1023
cycle: 7

Station Type Date Time Source
EKOD TAF 2015/04/20 17:00 UTC NOAA

TAF
AMD EKOD 201701Z 2017/2018 CNL

Example: see airport list